메인 페이지
METAR-TAF:

METAR-TAF

공항 :

다마스쿠스, 시리아

다마스쿠스 국제공항

위도: 33-25N, 경도: 036-31E, 고도: 608m

현재 날씨관측

예보는 53분 전, 13:00시(UTC)에 발표되었습니다.
남남서12kt
온도 18°C
습도 42%
기압 1015 hPa
시정 10km 이상
1500m 미만 상공 구름 및 적란운 없음

METAR: OSDI 191300Z 21012KT CAVOK 18/05 Q1015

시각: 15:53 (13:53 UTC)

예보

예보는 2 시간 53분 전, 11:00시(UTC)에 발표되었습니다.
예보 대상 시간: 19일 12시부터 20일 18시까지 (UTC)
남서10kt
시정 10km 이상
고도 3000ft 상공 구름 조금
일시적
19일 12시부터 19일 18시까지 (UTC)
남서10kt, 순간 최대 풍속 20kt
전환 중
20일 00시부터 20일 08시까지 (UTC)
여러 방향의 바람 3kt
시정: 4000m
박무
일시적
20일 01시부터 20일 06시까지 (UTC)
여러 방향의 바람 3kt
시정: 0200m
고도 1000ft 상공 구름 조금
안개
전환 중
20일 08시부터 20일 10시까지 (UTC)
남서10kt
시정 10km 이상
고도 3000ft 상공 구름 조금

TAF: OSDI 191100Z 1912/2018 22010KT 9999 FEW030 TEMPO 1912/1918 22010G20KT BECMG 2000/2008 VRB03KT 4000 BR TEMPO 2001/2006 VRB03KT 0200 FG FEW010 BECMG 2008/2010 22010KT 9999 FEW030

4,000개 이상의 공항 관측 자료 및 예보 (METAR 및 TAF 보고).

지도상에서 검색 가능한 기상관측소가 노란 점과 빨간 점으로 표시되어 있습니다.

기상관측소 명을 보려면 표시 위로 마우스를 이동하세요.

날씨 관측과 예보를 보려면 클릭하세요.

지도 변경 : 확대하려면 엑스 표시가 있는 녹색 버튼, 축소하려면 빼기 표시가 있는 녹색 버튼, 다음 페이지의 지도를 보려면 녹색 화살표를 클릭하세요.


METAR-TAF: